< < Back
Terminal Aerodrome Forecast


Current Version              Previous Versions:   1  2  3  4  5  6  7  8  9  

Terminal Aerodrome Forecast

067
FTUS42 KTAE 132320
TAFTLH
TAF
KTLH 132320Z 1400/1424 36004KT P6SM SKC
     FM141500 10006KT P6SM SKC=



Latest METAR

265
SAUS80 KWBC 140800 RRB
MTRTLH
METAR KTLH 140753Z AUTO 04003KT 10SM CLR 05/M07 A3032 RMK AO2 SLP266
T00501067


USA.gov is the U.S. government's official web portal to all federal, state and local government web resources and services.